sensor_id;sensor_type;location;lat;lon;timestamp;P1;durP1;ratioP1;P2;durP2;ratioP2
11481;SDS011;5797;51.662;6.748;2023-08-24T00:01:50;9.30;;;4.67;;
11481;SDS011;5797;51.662;6.748;2023-08-24T00:04:19;6.77;;;5.00;;
11481;SDS011;5797;51.662;6.748;2023-08-24T00:06:49;9.73;;;4.50;;
11481;SDS011;5797;51.662;6.748;2023-08-24T00:09:17;5.43;;;4.30;;
11481;SDS011;5797;51.662;6.748;2023-08-24T00:11:46;5.93;;;4.53;;
11481;SDS011;5797;51.662;6.748;2023-08-24T00:14:14;6.10;;;5.27;;
11481;SDS011;5797;51.662;6.748;2023-08-24T00:16:43;8.87;;;5.23;;
11481;SDS011;5797;51.662;6.748;2023-08-24T00:19:11;8.30;;;5.27;;
11481;SDS011;5797;51.662;6.748;2023-08-24T00:21:40;7.60;;;4.87;;
11481;SDS011;5797;51.662;6.748;2023-08-24T00:24:10;8.67;;;5.50;;
11481;SDS011;5797;51.662;6.748;2023-08-24T00:26:38;7.53;;;5.47;;
11481;SDS011;5797;51.662;6.748;2023-08-24T00:29:07;6.83;;;5.40;;
11481;SDS011;5797;51.662;6.748;2023-08-24T00:31:36;6.67;;;4.70;;
11481;SDS011;5797;51.662;6.748;2023-08-24T00:34:04;7.07;;;5.27;;
11481;SDS011;5797;51.662;6.748;2023-08-24T00:36:33;5.63;;;4.37;;
11481;SDS011;5797;51.662;6.748;2023-08-24T00:39:02;6.27;;;5.00;;
11481;SDS011;5797;51.662;6.748;2023-08-24T00:41:32;9.87;;;4.70;;
11481;SDS011;5797;51.662;6.748;2023-08-24T00:44:00;8.70;;;5.37;;
11481;SDS011;5797;51.662;6.748;2023-08-24T00:46:31;7.07;;;5.37;;
11481;SDS011;5797;51.662;6.748;2023-08-24T00:48:59;8.67;;;6.00;;
11481;SDS011;5797;51.662;6.748;2023-08-24T00:51:28;10.53;;;7.17;;
11481;SDS011;5797;51.662;6.748;2023-08-24T00:53:57;11.23;;;6.23;;
11481;SDS011;5797;51.662;6.748;2023-08-24T00:56:26;9.97;;;5.03;;
11481;SDS011;5797;51.662;6.748;2023-08-24T00:58:59;7.93;;;5.40;;
11481;SDS011;5797;51.662;6.748;2023-08-24T01:01:27;9.60;;;5.67;;
11481;SDS011;5797;51.662;6.748;2023-08-24T01:03:56;9.87;;;5.70;;
11481;SDS011;5797;51.662;6.748;2023-08-24T01:06:24;6.73;;;5.10;;
11481;SDS011;5797;51.662;6.748;2023-08-24T01:08:53;6.90;;;5.43;;
11481;SDS011;5797;51.662;6.748;2023-08-24T01:11:24;10.20;;;5.23;;
11481;SDS011;5797;51.662;6.748;2023-08-24T01:13:57;7.43;;;4.60;;
11481;SDS011;5797;51.662;6.748;2023-08-24T01:16:31;7.70;;;4.93;;
11481;SDS011;5797;51.662;6.748;2023-08-24T01:19:00;7.37;;;5.03;;
11481;SDS011;5797;51.662;6.748;2023-08-24T01:21:30;9.63;;;5.23;;
11481;SDS011;5797;51.662;6.748;2023-08-24T01:24:00;7.03;;;5.87;;
11481;SDS011;5797;51.662;6.748;2023-08-24T01:26:33;9.33;;;5.97;;
11481;SDS011;5797;51.662;6.748;2023-08-24T01:29:01;8.73;;;6.50;;
11481;SDS011;5797;51.662;6.748;2023-08-24T01:31:33;10.10;;;5.93;;
11481;SDS011;5797;51.662;6.748;2023-08-24T01:34:02;11.87;;;6.00;;
11481;SDS011;5797;51.662;6.748;2023-08-24T01:36:30;8.43;;;5.23;;
11481;SDS011;5797;51.662;6.748;2023-08-24T01:38:59;11.93;;;6.53;;
11481;SDS011;5797;51.662;6.748;2023-08-24T01:41:35;9.33;;;6.10;;
11481;SDS011;5797;51.662;6.748;2023-08-24T01:44:06;9.67;;;5.97;;
11481;SDS011;5797;51.662;6.748;2023-08-24T01:46:36;10.73;;;6.23;;
11481;SDS011;5797;51.662;6.748;2023-08-24T01:49:06;8.50;;;6.23;;
11481;SDS011;5797;51.662;6.748;2023-08-24T01:51:35;17.50;;;7.40;;
11481;SDS011;5797;51.662;6.748;2023-08-24T01:54:05;10.87;;;6.70;;
11481;SDS011;5797;51.662;6.748;2023-08-24T01:56:34;9.37;;;6.20;;
11481;SDS011;5797;51.662;6.748;2023-08-24T01:59:03;8.03;;;6.13;;
11481;SDS011;5797;51.662;6.748;2023-08-24T02:01:32;11.40;;;6.40;;
11481;SDS011;5797;51.662;6.748;2023-08-24T02:04:01;10.53;;;6.73;;
11481;SDS011;5797;51.662;6.748;2023-08-24T02:06:29;8.63;;;5.73;;
11481;SDS011;5797;51.662;6.748;2023-08-24T02:08:58;9.93;;;6.20;;
11481;SDS011;5797;51.662;6.748;2023-08-24T02:11:29;9.90;;;5.53;;
11481;SDS011;5797;51.662;6.748;2023-08-24T02:13:59;10.63;;;6.43;;
11481;SDS011;5797;51.662;6.748;2023-08-24T02:16:27;9.80;;;5.97;;
11481;SDS011;5797;51.662;6.748;2023-08-24T02:18:57;9.83;;;6.40;;
11481;SDS011;5797;51.662;6.748;2023-08-24T02:21:26;8.07;;;6.00;;
11481;SDS011;5797;51.662;6.748;2023-08-24T02:23:54;9.20;;;6.57;;
11481;SDS011;5797;51.662;6.748;2023-08-24T02:26:23;9.00;;;5.80;;
11481;SDS011;5797;51.662;6.748;2023-08-24T02:28:51;9.30;;;6.70;;
11481;SDS011;5797;51.662;6.748;2023-08-24T02:31:21;8.97;;;6.33;;
11481;SDS011;5797;51.662;6.748;2023-08-24T02:33:50;11.83;;;6.30;;
11481;SDS011;5797;51.662;6.748;2023-08-24T02:36:19;9.40;;;5.80;;
11481;SDS011;5797;51.662;6.748;2023-08-24T02:38:47;7.67;;;5.57;;
11481;SDS011;5797;51.662;6.748;2023-08-24T02:41:17;9.77;;;5.63;;
11481;SDS011;5797;51.662;6.748;2023-08-24T02:43:46;9.97;;;6.00;;
11481;SDS011;5797;51.662;6.748;2023-08-24T02:46:15;9.77;;;6.57;;
11481;SDS011;5797;51.662;6.748;2023-08-24T02:48:49;11.20;;;6.90;;
11481;SDS011;5797;51.662;6.748;2023-08-24T02:51:20;12.03;;;6.67;;
11481;SDS011;5797;51.662;6.748;2023-08-24T02:53:49;11.20;;;6.93;;
11481;SDS011;5797;51.662;6.748;2023-08-24T02:56:21;14.00;;;7.60;;
11481;SDS011;5797;51.662;6.748;2023-08-24T02:58:54;10.03;;;7.40;;
11481;SDS011;5797;51.662;6.748;2023-08-24T03:01:26;10.10;;;7.37;;
11481;SDS011;5797;51.662;6.748;2023-08-24T03:04:00;11.97;;;8.37;;
11481;SDS011;5797;51.662;6.748;2023-08-24T03:06:34;10.27;;;6.80;;
11481;SDS011;5797;51.662;6.748;2023-08-24T03:09:05;14.33;;;7.50;;
11481;SDS011;5797;51.662;6.748;2023-08-24T03:11:36;11.20;;;7.27;;
11481;SDS011;5797;51.662;6.748;2023-08-24T03:14:05;10.47;;;6.93;;
11481;SDS011;5797;51.662;6.748;2023-08-24T03:16:37;11.33;;;7.10;;
11481;SDS011;5797;51.662;6.748;2023-08-24T03:19:07;9.90;;;6.70;;
11481;SDS011;5797;51.662;6.748;2023-08-24T03:21:39;10.37;;;6.70;;
11481;SDS011;5797;51.662;6.748;2023-08-24T03:24:08;9.83;;;6.97;;
11481;SDS011;5797;51.662;6.748;2023-08-24T03:26:39;8.73;;;6.87;;
11481;SDS011;5797;51.662;6.748;2023-08-24T03:29:08;9.90;;;7.70;;
11481;SDS011;5797;51.662;6.748;2023-08-24T03:31:38;13.57;;;7.93;;
11481;SDS011;5797;51.662;6.748;2023-08-24T03:34:13;13.07;;;8.57;;
11481;SDS011;5797;51.662;6.748;2023-08-24T03:36:44;12.77;;;8.17;;
11481;SDS011;5797;51.662;6.748;2023-08-24T03:39:15;10.67;;;8.13;;
11481;SDS011;5797;51.662;6.748;2023-08-24T03:41:45;14.07;;;8.30;;
11481;SDS011;5797;51.662;6.748;2023-08-24T03:44:14;11.47;;;8.03;;
11481;SDS011;5797;51.662;6.748;2023-08-24T03:46:44;11.60;;;8.50;;
11481;SDS011;5797;51.662;6.748;2023-08-24T03:49:16;11.27;;;8.63;;
11481;SDS011;5797;51.662;6.748;2023-08-24T03:51:46;13.27;;;7.73;;
11481;SDS011;5797;51.662;6.748;2023-08-24T03:54:17;12.97;;;8.00;;
11481;SDS011;5797;51.662;6.748;2023-08-24T03:56:47;13.73;;;8.50;;
11481;SDS011;5797;51.662;6.748;2023-08-24T03:59:16;13.40;;;8.33;;
11481;SDS011;5797;51.662;6.748;2023-08-24T04:01:47;11.87;;;8.17;;
11481;SDS011;5797;51.662;6.748;2023-08-24T04:04:19;9.17;;;7.57;;
11481;SDS011;5797;51.662;6.748;2023-08-24T04:06:48;11.47;;;8.07;;
11481;SDS011;5797;51.662;6.748;2023-08-24T04:09:18;13.60;;;8.27;;
11481;SDS011;5797;51.662;6.748;2023-08-24T04:11:48;14.13;;;8.03;;
11481;SDS011;5797;51.662;6.748;2023-08-24T04:14:19;9.97;;;7.83;;
11481;SDS011;5797;51.662;6.748;2023-08-24T04:16:50;12.83;;;8.73;;
11481;SDS011;5797;51.662;6.748;2023-08-24T04:19:22;13.67;;;8.73;;
11481;SDS011;5797;51.662;6.748;2023-08-24T04:21:51;13.90;;;9.13;;
11481;SDS011;5797;51.662;6.748;2023-08-24T04:24:21;14.97;;;8.97;;
11481;SDS011;5797;51.662;6.748;2023-08-24T04:26:53;16.20;;;10.17;;
11481;SDS011;5797;51.662;6.748;2023-08-24T04:29:22;15.87;;;9.47;;
11481;SDS011;5797;51.662;6.748;2023-08-24T04:31:51;15.10;;;9.40;;
11481;SDS011;5797;51.662;6.748;2023-08-24T04:34:22;13.67;;;9.90;;
11481;SDS011;5797;51.662;6.748;2023-08-24T04:36:53;18.27;;;10.77;;
11481;SDS011;5797;51.662;6.748;2023-08-24T04:39:23;21.50;;;10.13;;
11481;SDS011;5797;51.662;6.748;2023-08-24T04:41:52;14.07;;;9.70;;
11481;SDS011;5797;51.662;6.748;2023-08-24T04:44:22;14.60;;;10.13;;
11481;SDS011;5797;51.662;6.748;2023-08-24T04:46:52;14.97;;;10.53;;
11481;SDS011;5797;51.662;6.748;2023-08-24T04:49:24;11.83;;;9.80;;
11481;SDS011;5797;51.662;6.748;2023-08-24T04:51:53;18.20;;;11.20;;
11481;SDS011;5797;51.662;6.748;2023-08-24T04:54:23;18.53;;;11.03;;
11481;SDS011;5797;51.662;6.748;2023-08-24T04:56:53;17.17;;;11.80;;
11481;SDS011;5797;51.662;6.748;2023-08-24T04:59:23;14.47;;;11.13;;
11481;SDS011;5797;51.662;6.748;2023-08-24T05:01:52;17.23;;;12.40;;
11481;SDS011;5797;51.662;6.748;2023-08-24T05:04:24;22.53;;;12.00;;
11481;SDS011;5797;51.662;6.748;2023-08-24T05:06:55;17.37;;;11.87;;
11481;SDS011;5797;51.662;6.748;2023-08-24T05:09:24;19.63;;;12.33;;
11481;SDS011;5797;51.662;6.748;2023-08-24T05:11:55;19.87;;;13.13;;
11481;SDS011;5797;51.662;6.748;2023-08-24T05:14:26;19.20;;;13.47;;
11481;SDS011;5797;51.662;6.748;2023-08-24T05:16:57;20.60;;;14.20;;
11481;SDS011;5797;51.662;6.748;2023-08-24T05:19:29;20.60;;;12.97;;
11481;SDS011;5797;51.662;6.748;2023-08-24T05:22:00;21.20;;;13.10;;
11481;SDS011;5797;51.662;6.748;2023-08-24T05:24:30;19.03;;;12.27;;
11481;SDS011;5797;51.662;6.748;2023-08-24T05:27:01;16.97;;;11.87;;
11481;SDS011;5797;51.662;6.748;2023-08-24T05:29:32;16.13;;;11.97;;
11481;SDS011;5797;51.662;6.748;2023-08-24T05:32:02;15.60;;;11.70;;
11481;SDS011;5797;51.662;6.748;2023-08-24T05:34:33;16.70;;;11.83;;
11481;SDS011;5797;51.662;6.748;2023-08-24T05:37:03;19.83;;;12.27;;
11481;SDS011;5797;51.662;6.748;2023-08-24T05:39:34;17.93;;;12.13;;
11481;SDS011;5797;51.662;6.748;2023-08-24T05:42:04;20.70;;;12.67;;
11481;SDS011;5797;51.662;6.748;2023-08-24T05:44:34;15.27;;;12.10;;
11481;SDS011;5797;51.662;6.748;2023-08-24T05:47:03;17.40;;;12.67;;
11481;SDS011;5797;51.662;6.748;2023-08-24T05:49:35;16.33;;;11.20;;
11481;SDS011;5797;51.662;6.748;2023-08-24T05:52:04;15.53;;;11.47;;
11481;SDS011;5797;51.662;6.748;2023-08-24T05:54:35;17.57;;;11.57;;
11481;SDS011;5797;51.662;6.748;2023-08-24T05:57:05;14.87;;;12.30;;
11481;SDS011;5797;51.662;6.748;2023-08-24T05:59:34;18.37;;;13.17;;
11481;SDS011;5797;51.662;6.748;2023-08-24T06:02:04;15.13;;;12.63;;
11481;SDS011;5797;51.662;6.748;2023-08-24T06:04:36;18.20;;;13.23;;
11481;SDS011;5797;51.662;6.748;2023-08-24T06:07:06;19.10;;;12.70;;
11481;SDS011;5797;51.662;6.748;2023-08-24T06:09:35;16.67;;;12.90;;
11481;SDS011;5797;51.662;6.748;2023-08-24T06:12:06;18.23;;;13.27;;
11481;SDS011;5797;51.662;6.748;2023-08-24T06:14:36;20.77;;;13.70;;
11481;SDS011;5797;51.662;6.748;2023-08-24T06:17:05;19.07;;;13.57;;
11481;SDS011;5797;51.662;6.748;2023-08-24T06:19:37;20.73;;;13.27;;
11481;SDS011;5797;51.662;6.748;2023-08-24T06:22:08;20.00;;;14.30;;
11481;SDS011;5797;51.662;6.748;2023-08-24T06:24:38;19.87;;;14.10;;
11481;SDS011;5797;51.662;6.748;2023-08-24T06:27:07;17.90;;;13.27;;
11481;SDS011;5797;51.662;6.748;2023-08-24T06:29:37;18.63;;;14.03;;
11481;SDS011;5797;51.662;6.748;2023-08-24T06:32:06;20.07;;;13.07;;
11481;SDS011;5797;51.662;6.748;2023-08-24T06:34:38;19.00;;;13.90;;
11481;SDS011;5797;51.662;6.748;2023-08-24T06:37:08;21.37;;;14.20;;
11481;SDS011;5797;51.662;6.748;2023-08-24T06:39:38;24.13;;;14.07;;
11481;SDS011;5797;51.662;6.748;2023-08-24T06:42:08;20.80;;;14.13;;
11481;SDS011;5797;51.662;6.748;2023-08-24T06:44:38;18.13;;;13.70;;
11481;SDS011;5797;51.662;6.748;2023-08-24T06:47:07;25.13;;;14.17;;
11481;SDS011;5797;51.662;6.748;2023-08-24T06:49:39;20.43;;;14.63;;
11481;SDS011;5797;51.662;6.748;2023-08-24T06:52:08;21.97;;;14.47;;
11481;SDS011;5797;51.662;6.748;2023-08-24T06:54:38;21.10;;;14.03;;
11481;SDS011;5797;51.662;6.748;2023-08-24T06:57:08;19.53;;;14.97;;
11481;SDS011;5797;51.662;6.748;2023-08-24T06:59:38;19.00;;;14.30;;
11481;SDS011;5797;51.662;6.748;2023-08-24T07:02:08;22.53;;;14.40;;
11481;SDS011;5797;51.662;6.748;2023-08-24T07:04:40;18.97;;;14.37;;
11481;SDS011;5797;51.662;6.748;2023-08-24T07:07:10;22.27;;;15.13;;
11481;SDS011;5797;51.662;6.748;2023-08-24T07:09:40;19.23;;;14.57;;
11481;SDS011;5797;51.662;6.748;2023-08-24T07:12:10;23.97;;;15.90;;
11481;SDS011;5797;51.662;6.748;2023-08-24T07:14:40;20.30;;;16.20;;
11481;SDS011;5797;51.662;6.748;2023-08-24T07:17:10;19.77;;;15.33;;
11481;SDS011;5797;51.662;6.748;2023-08-24T07:19:40;22.43;;;15.53;;
11481;SDS011;5797;51.662;6.748;2023-08-24T07:22:10;22.57;;;15.47;;
11481;SDS011;5797;51.662;6.748;2023-08-24T07:24:39;20.37;;;15.37;;
11481;SDS011;5797;51.662;6.748;2023-08-24T07:27:12;21.23;;;14.93;;
11481;SDS011;5797;51.662;6.748;2023-08-24T07:29:40;18.07;;;13.77;;
11481;SDS011;5797;51.662;6.748;2023-08-24T07:32:09;15.70;;;13.10;;
11481;SDS011;5797;51.662;6.748;2023-08-24T07:34:37;21.23;;;14.63;;
11481;SDS011;5797;51.662;6.748;2023-08-24T07:37:07;21.30;;;14.67;;
11481;SDS011;5797;51.662;6.748;2023-08-24T07:39:37;14.47;;;12.53;;
11481;SDS011;5797;51.662;6.748;2023-08-24T07:42:06;18.17;;;12.60;;
11481;SDS011;5797;51.662;6.748;2023-08-24T07:44:34;14.40;;;11.03;;
11481;SDS011;5797;51.662;6.748;2023-08-24T07:47:04;15.03;;;10.33;;
11481;SDS011;5797;51.662;6.748;2023-08-24T07:49:32;13.07;;;9.30;;
11481;SDS011;5797;51.662;6.748;2023-08-24T07:52:02;16.00;;;10.13;;
11481;SDS011;5797;51.662;6.748;2023-08-24T07:54:32;13.80;;;9.83;;
11481;SDS011;5797;51.662;6.748;2023-08-24T07:57:00;14.97;;;10.27;;
11481;SDS011;5797;51.662;6.748;2023-08-24T07:59:29;18.20;;;11.67;;
11481;SDS011;5797;51.662;6.748;2023-08-24T08:01:58;12.80;;;9.00;;
11481;SDS011;5797;51.662;6.748;2023-08-24T08:04:27;13.37;;;8.43;;
11481;SDS011;5797;51.662;6.748;2023-08-24T08:06:55;9.93;;;7.23;;
11481;SDS011;5797;51.662;6.748;2023-08-24T08:09:24;14.03;;;8.13;;
11481;SDS011;5797;51.662;6.748;2023-08-24T08:11:54;10.37;;;8.30;;
11481;SDS011;5797;51.662;6.748;2023-08-24T08:14:23;13.83;;;8.43;;
11481;SDS011;5797;51.662;6.748;2023-08-24T08:16:51;13.33;;;8.07;;
11481;SDS011;5797;51.662;6.748;2023-08-24T08:19:20;13.70;;;8.03;;
11481;SDS011;5797;51.662;6.748;2023-08-24T08:21:49;10.03;;;7.03;;
11481;SDS011;5797;51.662;6.748;2023-08-24T08:24:18;10.47;;;7.20;;
11481;SDS011;5797;51.662;6.748;2023-08-24T08:26:52;9.07;;;6.20;;
11481;SDS011;5797;51.662;6.748;2023-08-24T08:29:22;10.73;;;7.50;;
11481;SDS011;5797;51.662;6.748;2023-08-24T08:31:51;10.13;;;7.22;;
11481;SDS011;5797;51.662;6.748;2023-08-24T08:34:19;10.93;;;7.03;;
11481;SDS011;5797;51.662;6.748;2023-08-24T08:36:48;11.48;;;7.00;;
11481;SDS011;5797;51.662;6.748;2023-08-24T08:39:17;9.85;;;7.20;;
11481;SDS011;5797;51.662;6.748;2023-08-24T08:41:46;16.98;;;6.70;;
11481;SDS011;5797;51.662;6.748;2023-08-24T08:44:16;8.82;;;6.25;;
11481;SDS011;5797;51.662;6.748;2023-08-24T08:46:45;14.63;;;6.35;;
11481;SDS011;5797;51.662;6.748;2023-08-24T08:49:14;7.57;;;5.80;;
11481;SDS011;5797;51.662;6.748;2023-08-24T08:51:44;9.30;;;6.22;;
11481;SDS011;5797;51.662;6.748;2023-08-24T08:54:13;9.43;;;6.35;;
11481;SDS011;5797;51.662;6.748;2023-08-24T08:56:42;9.30;;;6.10;;
11481;SDS011;5797;51.662;6.748;2023-08-24T08:59:11;7.90;;;5.25;;
11481;SDS011;5797;51.662;6.748;2023-08-24T09:01:41;8.40;;;5.90;;
11481;SDS011;5797;51.662;6.748;2023-08-24T09:04:13;8.32;;;5.10;;
11481;SDS011;5797;51.662;6.748;2023-08-24T09:06:42;8.27;;;5.15;;
11481;SDS011;5797;51.662;6.748;2023-08-24T09:09:11;6.97;;;4.82;;
11481;SDS011;5797;51.662;6.748;2023-08-24T09:11:40;8.27;;;5.50;;
11481;SDS011;5797;51.662;6.748;2023-08-24T09:14:10;8.85;;;5.07;;
11481;SDS011;5797;51.662;6.748;2023-08-24T09:16:38;7.45;;;4.28;;
11481;SDS011;5797;51.662;6.748;2023-08-24T09:19:10;5.95;;;4.50;;
11481;SDS011;5797;51.662;6.748;2023-08-24T09:21:40;6.47;;;3.70;;
11481;SDS011;5797;51.662;6.748;2023-08-24T09:24:11;9.20;;;4.38;;
11481;SDS011;5797;51.662;6.748;2023-08-24T09:26:40;6.00;;;4.60;;
11481;SDS011;5797;51.662;6.748;2023-08-24T09:29:11;5.82;;;4.45;;
11481;SDS011;5797;51.662;6.748;2023-08-24T09:31:40;5.50;;;3.95;;
11481;SDS011;5797;51.662;6.748;2023-08-24T09:34:11;7.55;;;4.45;;
11481;SDS011;5797;51.662;6.748;2023-08-24T09:36:41;7.25;;;4.63;;
11481;SDS011;5797;51.662;6.748;2023-08-24T09:39:12;5.60;;;4.60;;
11481;SDS011;5797;51.662;6.748;2023-08-24T09:41:45;10.02;;;4.65;;
11481;SDS011;5797;51.662;6.748;2023-08-24T09:44:16;6.95;;;4.57;;
11481;SDS011;5797;51.662;6.748;2023-08-24T09:46:45;9.95;;;4.97;;
11481;SDS011;5797;51.662;6.748;2023-08-24T09:49:14;7.15;;;4.80;;
11481;SDS011;5797;51.662;6.748;2023-08-24T09:51:44;11.27;;;5.15;;
11481;SDS011;5797;51.662;6.748;2023-08-24T09:54:13;7.55;;;5.43;;
11481;SDS011;5797;51.662;6.748;2023-08-24T09:56:46;6.72;;;4.95;;
11481;SDS011;5797;51.662;6.748;2023-08-24T09:59:17;7.70;;;5.30;;
11481;SDS011;5797;51.662;6.748;2023-08-24T10:01:46;6.50;;;4.95;;
11481;SDS011;5797;51.662;6.748;2023-08-24T10:04:17;9.32;;;5.72;;
11481;SDS011;5797;51.662;6.748;2023-08-24T10:06:55;6.85;;;4.43;;
11481;SDS011;5797;51.662;6.748;2023-08-24T10:09:25;7.90;;;5.10;;
11481;SDS011;5797;51.662;6.748;2023-08-24T10:11:58;10.50;;;4.63;;
11481;SDS011;5797;51.662;6.748;2023-08-24T10:14:29;4.55;;;4.07;;
11481;SDS011;5797;51.662;6.748;2023-08-24T10:17:00;6.18;;;4.25;;
11481;SDS011;5797;51.662;6.748;2023-08-24T10:19:28;7.05;;;4.30;;
11481;SDS011;5797;51.662;6.748;2023-08-24T10:21:59;7.32;;;4.90;;
11481;SDS011;5797;51.662;6.748;2023-08-24T10:24:29;8.52;;;4.57;;
11481;SDS011;5797;51.662;6.748;2023-08-24T10:26:59;8.13;;;4.97;;
11481;SDS011;5797;51.662;6.748;2023-08-24T10:29:28;7.78;;;4.97;;
11481;SDS011;5797;51.662;6.748;2023-08-24T10:31:58;7.45;;;4.63;;
11481;SDS011;5797;51.662;6.748;2023-08-24T10:34:26;7.32;;;4.60;;
11481;SDS011;5797;51.662;6.748;2023-08-24T10:36:55;5.15;;;4.60;;
11481;SDS011;5797;51.662;6.748;2023-08-24T10:39:28;5.47;;;4.65;;
11481;SDS011;5797;51.662;6.748;2023-08-24T10:41:57;7.65;;;4.32;;
11481;SDS011;5797;51.662;6.748;2023-08-24T10:44:33;5.07;;;4.10;;
11481;SDS011;5797;51.662;6.748;2023-08-24T10:47:06;7.65;;;4.43;;
11481;SDS011;5797;51.662;6.748;2023-08-24T10:49:44;8.20;;;4.63;;
11481;SDS011;5797;51.662;6.748;2023-08-24T10:52:17;5.15;;;4.10;;
11481;SDS011;5797;51.662;6.748;2023-08-24T10:54:51;7.47;;;4.70;;
11481;SDS011;5797;51.662;6.748;2023-08-24T10:57:22;7.35;;;4.20;;
11481;SDS011;5797;51.662;6.748;2023-08-24T11:00:30;4.88;;;4.05;;
11481;SDS011;5797;51.662;6.748;2023-08-24T11:02:50;3.97;;;3.55;;
11481;SDS011;5797;51.662;6.748;2023-08-24T11:05:23;9.25;;;4.20;;
11481;SDS011;5797;51.662;6.748;2023-08-24T11:07:55;6.38;;;3.95;;
11481;SDS011;5797;51.662;6.748;2023-08-24T11:10:31;6.47;;;3.90;;
11481;SDS011;5797;51.662;6.748;2023-08-24T11:13:04;5.45;;;4.28;;
11481;SDS011;5797;51.662;6.748;2023-08-24T11:15:37;5.25;;;3.92;;
11481;SDS011;5797;51.662;6.748;2023-08-24T11:18:22;7.50;;;4.10;;
11481;SDS011;5797;51.662;6.748;2023-08-24T11:20:52;5.13;;;4.38;;
11481;SDS011;5797;51.662;6.748;2023-08-24T11:23:22;9.82;;;3.85;;
11481;SDS011;5797;51.662;6.748;2023-08-24T11:25:54;7.43;;;4.57;;
11481;SDS011;5797;51.662;6.748;2023-08-24T11:28:24;6.32;;;4.68;;
11481;SDS011;5797;51.662;6.748;2023-08-24T11:30:53;8.43;;;6.50;;
11481;SDS011;5797;51.662;6.748;2023-08-24T11:33:26;6.45;;;4.28;;
11481;SDS011;5797;51.662;6.748;2023-08-24T11:35:56;10.05;;;4.85;;
11481;SDS011;5797;51.662;6.748;2023-08-24T11:38:25;7.28;;;4.30;;
11481;SDS011;5797;51.662;6.748;2023-08-24T11:40:55;5.80;;;3.97;;
11481;SDS011;5797;51.662;6.748;2023-08-24T11:43:24;7.53;;;4.03;;
11481;SDS011;5797;51.662;6.748;2023-08-24T11:45:54;6.45;;;4.03;;
11481;SDS011;5797;51.662;6.748;2023-08-24T11:48:26;7.93;;;4.35;;
11481;SDS011;5797;51.662;6.748;2023-08-24T11:50:57;14.25;;;9.23;;
11481;SDS011;5797;51.662;6.748;2023-08-24T11:53:26;7.22;;;5.10;;
11481;SDS011;5797;51.662;6.748;2023-08-24T11:55:57;6.00;;;4.40;;
11481;SDS011;5797;51.662;6.748;2023-08-24T11:58:32;6.60;;;3.88;;
11481;SDS011;5797;51.662;6.748;2023-08-24T12:01:00;6.88;;;4.60;;
11481;SDS011;5797;51.662;6.748;2023-08-24T12:03:30;5.60;;;4.15;;
11481;SDS011;5797;51.662;6.748;2023-08-24T12:05:59;8.45;;;4.03;;
11481;SDS011;5797;51.662;6.748;2023-08-24T12:08:28;5.15;;;3.78;;
11481;SDS011;5797;51.662;6.748;2023-08-24T12:10:58;5.25;;;3.85;;
11481;SDS011;5797;51.662;6.748;2023-08-24T12:13:26;6.22;;;3.53;;
11481;SDS011;5797;51.662;6.748;2023-08-24T12:16:02;5.75;;;3.53;;
11481;SDS011;5797;51.662;6.748;2023-08-24T12:18:35;6.35;;;3.22;;
11481;SDS011;5797;51.662;6.748;2023-08-24T12:21:13;5.70;;;3.80;;
11481;SDS011;5797;51.662;6.748;2023-08-24T12:23:42;5.20;;;3.60;;
11481;SDS011;5797;51.662;6.748;2023-08-24T12:26:20;4.65;;;3.67;;
11481;SDS011;5797;51.662;6.748;2023-08-24T12:28:49;6.15;;;4.43;;
11481;SDS011;5797;51.662;6.748;2023-08-24T12:31:19;6.68;;;4.13;;
11481;SDS011;5797;51.662;6.748;2023-08-24T12:33:57;5.88;;;3.88;;
11481;SDS011;5797;51.662;6.748;2023-08-24T12:36:27;8.88;;;4.43;;
11481;SDS011;5797;51.662;6.748;2023-08-24T12:38:55;7.18;;;4.82;;
11481;SDS011;5797;51.662;6.748;2023-08-24T12:41:25;7.80;;;4.40;;
11481;SDS011;5797;51.662;6.748;2023-08-24T12:43:54;8.13;;;4.13;;
11481;SDS011;5797;51.662;6.748;2023-08-24T12:46:23;7.43;;;4.38;;
11481;SDS011;5797;51.662;6.748;2023-08-24T12:48:52;6.57;;;4.78;;
11481;SDS011;5797;51.662;6.748;2023-08-24T12:51:22;9.38;;;4.32;;
11481;SDS011;5797;51.662;6.748;2023-08-24T12:53:52;7.05;;;4.40;;
11481;SDS011;5797;51.662;6.748;2023-08-24T12:56:20;5.10;;;4.38;;
11481;SDS011;5797;51.662;6.748;2023-08-24T12:58:51;8.73;;;4.53;;
11481;SDS011;5797;51.662;6.748;2023-08-24T13:01:19;5.78;;;3.75;;
11481;SDS011;5797;51.662;6.748;2023-08-24T13:03:48;4.82;;;4.07;;
11481;SDS011;5797;51.662;6.748;2023-08-24T13:06:17;8.15;;;4.82;;
11481;SDS011;5797;51.662;6.748;2023-08-24T13:08:48;7.57;;;4.35;;
11481;SDS011;5797;51.662;6.748;2023-08-24T13:11:17;5.25;;;4.00;;
11481;SDS011;5797;51.662;6.748;2023-08-24T13:13:45;7.13;;;4.22;;
11481;SDS011;5797;51.662;6.748;2023-08-24T13:16:15;9.05;;;4.60;;
11481;SDS011;5797;51.662;6.748;2023-08-24T13:18:44;7.78;;;5.25;;
11481;SDS011;5797;51.662;6.748;2023-08-24T13:21:12;10.48;;;4.07;;
11481;SDS011;5797;51.662;6.748;2023-08-24T13:23:42;7.50;;;4.30;;
11481;SDS011;5797;51.662;6.748;2023-08-24T13:26:16;12.45;;;4.55;;
11481;SDS011;5797;51.662;6.748;2023-08-24T13:28:46;11.55;;;4.50;;
11481;SDS011;5797;51.662;6.748;2023-08-24T13:31:17;8.45;;;4.15;;
11481;SDS011;5797;51.662;6.748;2023-08-24T13:33:46;6.63;;;4.10;;
11481;SDS011;5797;51.662;6.748;2023-08-24T13:36:14;10.10;;;4.53;;
11481;SDS011;5797;51.662;6.748;2023-08-24T13:38:43;7.88;;;5.07;;
11481;SDS011;5797;51.662;6.748;2023-08-24T13:41:12;7.88;;;4.32;;
11481;SDS011;5797;51.662;6.748;2023-08-24T13:43:41;6.82;;;3.80;;
11481;SDS011;5797;51.662;6.748;2023-08-24T13:46:10;6.85;;;4.38;;
11481;SDS011;5797;51.662;6.748;2023-08-24T13:48:40;5.97;;;3.83;;
11481;SDS011;5797;51.662;6.748;2023-08-24T13:51:08;5.35;;;4.32;;
11481;SDS011;5797;51.662;6.748;2023-08-24T13:53:38;9.27;;;4.43;;
11481;SDS011;5797;51.662;6.748;2023-08-24T13:56:07;9.32;;;4.10;;
11481;SDS011;5797;51.662;6.748;2023-08-24T13:58:36;7.13;;;4.53;;
11481;SDS011;5797;51.662;6.748;2023-08-24T14:01:05;7.88;;;3.95;;
11481;SDS011;5797;51.662;6.748;2023-08-24T14:03:34;6.30;;;4.00;;
11481;SDS011;5797;51.662;6.748;2023-08-24T14:06:06;5.72;;;3.50;;
11481;SDS011;5797;51.662;6.748;2023-08-24T14:08:34;8.07;;;4.47;;
11481;SDS011;5797;51.662;6.748;2023-08-24T14:11:03;6.57;;;3.30;;
11481;SDS011;5797;51.662;6.748;2023-08-24T14:13:31;8.43;;;3.88;;
11481;SDS011;5797;51.662;6.748;2023-08-24T14:16:00;5.93;;;3.63;;
11481;SDS011;5797;51.662;6.748;2023-08-24T14:18:43;8.18;;;3.83;;
11481;SDS011;5797;51.662;6.748;2023-08-24T14:21:14;7.10;;;3.63;;
11481;SDS011;5797;51.662;6.748;2023-08-24T14:23:48;5.88;;;3.38;;
11481;SDS011;5797;51.662;6.748;2023-08-24T14:26:17;6.78;;;3.47;;
11481;SDS011;5797;51.662;6.748;2023-08-24T14:28:49;9.82;;;3.42;;
11481;SDS011;5797;51.662;6.748;2023-08-24T14:31:20;5.20;;;3.20;;
11481;SDS011;5797;51.662;6.748;2023-08-24T14:33:49;8.18;;;3.25;;
11481;SDS011;5797;51.662;6.748;2023-08-24T14:36:20;5.25;;;3.20;;
11481;SDS011;5797;51.662;6.748;2023-08-24T14:38:50;6.55;;;3.22;;
11481;SDS011;5797;51.662;6.748;2023-08-24T14:41:20;4.85;;;2.88;;
11481;SDS011;5797;51.662;6.748;2023-08-24T14:43:49;11.20;;;3.72;;
11481;SDS011;5797;51.662;6.748;2023-08-24T14:46:18;6.80;;;3.70;;
11481;SDS011;5797;51.662;6.748;2023-08-24T14:48:47;5.25;;;2.90;;
11481;SDS011;5797;51.662;6.748;2023-08-24T14:51:16;6.82;;;3.70;;
11481;SDS011;5797;51.662;6.748;2023-08-24T14:53:47;7.90;;;3.10;;
11481;SDS011;5797;51.662;6.748;2023-08-24T14:56:16;7.93;;;3.28;;
11481;SDS011;5797;51.662;6.748;2023-08-24T14:58:45;5.85;;;3.72;;
11481;SDS011;5797;51.662;6.748;2023-08-24T15:01:14;7.72;;;3.45;;
11481;SDS011;5797;51.662;6.748;2023-08-24T15:03:44;5.32;;;3.28;;
11481;SDS011;5797;51.662;6.748;2023-08-24T15:06:12;5.53;;;3.38;;
11481;SDS011;5797;51.662;6.748;2023-08-24T15:08:41;7.55;;;3.80;;
11481;SDS011;5797;51.662;6.748;2023-08-24T15:11:13;6.28;;;3.47;;